createdAt,value
2023-03-10T00:01:19.808Z,6.62
2023-03-10T00:04:23.684Z,6.57
2023-03-10T00:07:28.121Z,6.51
2023-03-10T00:10:35.523Z,6.46
2023-03-10T00:13:39.529Z,6.42
2023-03-10T00:16:48.011Z,6.42
2023-03-10T00:19:53.484Z,6.26
2023-03-10T00:22:57.149Z,6.12
2023-03-10T00:26:01.822Z,6.06
2023-03-10T00:29:09.288Z,6.18
2023-03-10T00:32:16.525Z,6.19
2023-03-10T00:35:22.022Z,6.04
2023-03-10T00:38:28.191Z,5.88
2023-03-10T00:41:32.622Z,5.79
2023-03-10T00:44:38.685Z,5.72
2023-03-10T00:47:41.893Z,5.77
2023-03-10T00:50:45.571Z,5.74
2023-03-10T00:53:48.687Z,5.63
2023-03-10T00:56:55.353Z,5.51
2023-03-10T01:00:00.414Z,5.45
2023-03-10T01:03:04.000Z,5.41
2023-03-10T01:06:11.819Z,5.40
2023-03-10T01:09:17.359Z,5.34
2023-03-10T01:12:22.293Z,5.26
2023-03-10T01:15:26.717Z,5.18
2023-03-10T01:18:36.401Z,5.18
2023-03-10T01:21:40.379Z,5.08
2023-03-10T01:24:44.614Z,5.06
2023-03-10T01:27:50.560Z,5.14
2023-03-10T01:30:58.709Z,5.11
2023-03-10T01:34:07.504Z,5.00
2023-03-10T01:37:10.487Z,4.95
2023-03-10T01:40:21.473Z,4.90
2023-03-10T01:43:33.779Z,4.84
2023-03-10T01:46:40.016Z,4.89
2023-03-10T01:49:53.654Z,4.87
2023-03-10T01:53:01.485Z,4.91
2023-03-10T01:56:14.324Z,5.01
2023-03-10T01:59:21.002Z,5.01
2023-03-10T02:02:28.689Z,4.90
2023-03-10T02:05:33.559Z,4.79
2023-03-10T02:08:41.275Z,4.77
2023-03-10T02:11:49.541Z,4.74
2023-03-10T02:14:52.640Z,4.66
2023-03-10T02:17:55.988Z,4.66
2023-03-10T02:21:21.060Z,4.63
2023-03-10T02:24:27.341Z,4.53
2023-03-10T02:27:34.295Z,4.45
2023-03-10T02:30:39.086Z,4.37
2023-03-10T02:33:43.766Z,4.33
2023-03-10T02:36:58.231Z,4.29
2023-03-10T02:40:02.853Z,4.29
2023-03-10T02:43:15.178Z,4.26
2023-03-10T02:46:23.474Z,4.26
2023-03-10T02:49:28.224Z,4.36
2023-03-10T02:52:36.623Z,4.35
2023-03-10T02:55:39.425Z,4.34
2023-03-10T02:58:42.503Z,4.30
2023-03-10T03:01:45.425Z,4.21
2023-03-10T03:04:48.385Z,4.14
2023-03-10T03:07:52.090Z,4.09
2023-03-10T03:10:56.208Z,4.24
2023-03-10T03:14:00.137Z,4.23
2023-03-10T03:17:04.597Z,4.22
2023-03-10T03:20:20.845Z,4.16
2023-03-10T03:23:24.963Z,4.13
2023-03-10T03:26:31.099Z,4.08
2023-03-10T03:29:36.240Z,4.02
2023-03-10T03:32:40.762Z,3.96
2023-03-10T03:35:47.379Z,3.91
2023-03-10T03:38:51.710Z,3.94
2023-03-10T03:42:00.837Z,3.91
2023-03-10T03:45:05.168Z,3.93
2023-03-10T03:48:09.287Z,3.90
2023-03-10T03:51:15.853Z,3.85
2023-03-10T03:54:31.231Z,3.80
2023-03-10T03:57:34.738Z,3.81
2023-03-10T04:00:39.792Z,3.79
2023-03-10T04:03:43.519Z,3.78
2023-03-10T04:06:50.670Z,3.71
2023-03-10T04:09:55.811Z,3.71
2023-03-10T04:13:01.366Z,3.69
2023-03-10T04:16:16.758Z,3.64
2023-03-10T04:19:28.853Z,3.63
2023-03-10T04:22:42.087Z,3.58
2023-03-10T04:25:46.302Z,3.55
2023-03-10T04:28:48.576Z,3.54
2023-03-10T04:32:05.243Z,3.52
2023-03-10T04:35:10.116Z,3.50
2023-03-10T04:38:14.231Z,3.61
2023-03-10T04:41:18.453Z,3.67
2023-03-10T04:44:31.675Z,3.62
2023-03-10T04:47:35.094Z,3.52
2023-03-10T04:50:38.010Z,3.56
2023-03-10T04:53:41.577Z,3.60
2023-03-10T04:56:44.998Z,3.64
2023-03-10T04:59:48.139Z,3.61
2023-03-10T05:02:52.098Z,3.66
2023-03-10T05:05:55.484Z,3.68
2023-03-10T05:08:59.099Z,3.67
2023-03-10T05:12:02.188Z,3.72
2023-03-10T05:15:06.019Z,3.87
2023-03-10T05:18:10.010Z,3.97
2023-03-10T05:21:13.750Z,3.92
2023-03-10T05:24:17.970Z,3.89
2023-03-10T05:27:22.584Z,3.93
2023-03-10T05:30:25.873Z,4.01
2023-03-10T05:33:31.345Z,4.09
2023-03-10T05:36:34.924Z,4.15
2023-03-10T05:39:37.707Z,4.25
2023-03-10T05:42:40.694Z,4.32
2023-03-10T05:45:43.735Z,4.40
2023-03-10T05:48:47.089Z,4.57
2023-03-10T05:51:50.489Z,4.73
2023-03-10T05:54:54.311Z,4.97
2023-03-10T05:57:57.187Z,5.14
2023-03-10T06:01:00.511Z,5.30
2023-03-10T06:04:04.657Z,5.53
2023-03-10T06:07:08.208Z,5.83
2023-03-10T06:10:12.455Z,6.13
2023-03-10T06:13:15.626Z,6.41
2023-03-10T06:16:18.972Z,7.42
2023-03-10T06:19:22.937Z,9.04
2023-03-10T06:22:26.134Z,9.85
2023-03-10T06:25:31.296Z,9.83
2023-03-10T06:28:37.355Z,10.71
2023-03-10T06:31:41.403Z,11.90
2023-03-10T06:34:44.467Z,12.30
2023-03-10T06:37:47.755Z,12.48
2023-03-10T06:40:51.149Z,11.88
2023-03-10T06:43:54.455Z,12.66
2023-03-10T06:46:57.763Z,12.29
2023-03-10T06:50:01.911Z,12.07
2023-03-10T06:53:05.380Z,11.65
2023-03-10T06:56:10.005Z,11.64
2023-03-10T06:59:13.312Z,11.50
2023-03-10T07:02:16.542Z,10.70
2023-03-10T07:05:20.604Z,10.51
2023-03-10T07:08:23.410Z,10.66
2023-03-10T07:11:29.246Z,10.72
2023-03-10T07:14:34.084Z,10.62
2023-03-10T07:17:37.075Z,10.23
2023-03-10T07:20:41.301Z,11.13
2023-03-10T07:23:44.197Z,11.49
2023-03-10T07:26:47.691Z,12.00
2023-03-10T07:29:50.885Z,12.90
2023-03-10T07:32:54.243Z,12.69
2023-03-10T07:35:57.272Z,12.10
2023-03-10T07:39:00.270Z,11.77
2023-03-10T07:42:06.741Z,11.40
2023-03-10T07:45:09.573Z,11.31
2023-03-10T07:48:12.520Z,11.58
2023-03-10T07:51:16.111Z,11.86
2023-03-10T07:54:19.239Z,11.94
2023-03-10T07:57:22.007Z,11.93
2023-03-10T08:00:25.189Z,12.22
2023-03-10T08:03:28.746Z,12.22
2023-03-10T08:06:33.445Z,12.44
2023-03-10T08:09:36.931Z,12.30
2023-03-10T08:12:43.208Z,12.32
2023-03-10T08:15:46.452Z,12.10
2023-03-10T08:18:58.257Z,12.15
2023-03-10T08:22:03.120Z,12.32
2023-03-10T08:25:07.253Z,12.65
2023-03-10T08:28:10.548Z,12.89
2023-03-10T08:31:15.454Z,13.03
2023-03-10T08:34:19.793Z,13.02
2023-03-10T08:37:23.430Z,13.05
2023-03-10T08:40:26.984Z,12.84
2023-03-10T08:43:30.140Z,12.47
2023-03-10T08:46:33.387Z,12.42
2023-03-10T08:49:36.955Z,12.70
2023-03-10T08:52:40.030Z,12.97
2023-03-10T08:55:43.317Z,13.29
2023-03-10T08:58:46.805Z,13.48
2023-03-10T09:01:49.941Z,13.56
2023-03-10T09:04:52.895Z,13.58
2023-03-10T09:07:56.031Z,13.89
2023-03-10T09:10:58.492Z,14.31
2023-03-10T09:14:02.841Z,14.26
2023-03-10T09:17:06.093Z,14.06
2023-03-10T09:20:10.049Z,13.74
2023-03-10T09:23:14.363Z,13.80
2023-03-10T09:26:17.496Z,13.86
2023-03-10T09:29:23.010Z,14.07
2023-03-10T09:32:29.774Z,14.14
2023-03-10T09:35:32.458Z,14.43
2023-03-10T09:38:35.866Z,14.61
2023-03-10T09:41:38.628Z,14.79
2023-03-10T09:44:43.326Z,14.72
2023-03-10T09:47:58.239Z,14.79
2023-03-10T09:51:06.236Z,15.15
2023-03-10T09:54:21.103Z,15.67
2023-03-10T09:57:25.424Z,15.84
2023-03-10T10:00:34.885Z,15.92
2023-03-10T10:03:52.720Z,15.64
2023-03-10T10:06:57.852Z,15.76
2023-03-10T10:10:08.181Z,15.89
2023-03-10T10:13:16.609Z,16.10
2023-03-10T10:16:36.749Z,16.46
2023-03-10T10:19:41.066Z,16.87
2023-03-10T10:22:45.786Z,17.15
2023-03-10T10:25:50.380Z,16.91
2023-03-10T10:29:07.536Z,17.16
2023-03-10T10:32:11.781Z,17.25
2023-03-10T10:35:16.184Z,17.77
2023-03-10T10:38:25.067Z,17.59
2023-03-10T10:41:32.695Z,17.37
2023-03-10T10:44:41.237Z,16.95
2023-03-10T10:47:50.995Z,16.60
2023-03-10T10:50:54.678Z,16.48
2023-03-10T10:53:58.445Z,16.66
2023-03-10T10:57:02.606Z,17.16
2023-03-10T11:00:24.345Z,17.42
2023-03-10T11:03:33.262Z,17.22
2023-03-10T11:06:38.608Z,16.92
2023-03-10T11:09:41.590Z,17.01
2023-03-10T11:12:44.378Z,17.45
2023-03-10T11:15:56.518Z,17.31
2023-03-10T11:19:06.330Z,17.16
2023-03-10T11:22:38.664Z,17.24
2023-03-10T11:25:59.509Z,17.22
2023-03-10T11:29:04.010Z,17.32
2023-03-10T11:32:29.517Z,17.25
2023-03-10T11:35:46.026Z,16.97
2023-03-10T11:38:50.520Z,16.83
2023-03-10T11:42:01.618Z,17.03
2023-03-10T11:45:04.109Z,17.07
2023-03-10T11:48:25.397Z,16.92
2023-03-10T11:51:31.630Z,17.12
2023-03-10T11:54:57.965Z,17.50
2023-03-10T11:58:02.560Z,17.43
2023-03-10T12:01:06.099Z,17.34
2023-03-10T12:04:12.507Z,17.26
2023-03-10T12:07:36.542Z,17.16
2023-03-10T12:10:40.407Z,17.06
2023-03-10T12:13:48.993Z,17.09
2023-03-10T12:16:52.272Z,17.30
2023-03-10T12:20:15.008Z,17.32
2023-03-10T12:23:27.457Z,17.33
2023-03-10T12:26:38.683Z,17.30
2023-03-10T12:29:44.393Z,17.34
2023-03-10T12:32:47.800Z,17.26
2023-03-10T12:35:52.611Z,17.16
2023-03-10T12:38:59.712Z,17.04
2023-03-10T12:42:03.153Z,16.87
2023-03-10T12:45:17.844Z,16.95
2023-03-10T12:48:22.762Z,17.08
2023-03-10T12:51:25.966Z,16.99
2023-03-10T12:54:28.442Z,16.68
2023-03-10T12:57:31.390Z,16.73
2023-03-10T13:00:40.921Z,16.88
2023-03-10T13:03:46.696Z,16.89
2023-03-10T13:06:49.525Z,17.00
2023-03-10T13:09:52.764Z,17.21
2023-03-10T13:12:57.129Z,17.45
2023-03-10T13:16:01.613Z,17.46
2023-03-10T13:19:04.259Z,17.35
2023-03-10T13:22:07.047Z,17.37
2023-03-10T13:25:14.455Z,17.47
2023-03-10T13:28:17.156Z,17.44
2023-03-10T13:31:21.823Z,17.55
2023-03-10T13:34:28.237Z,17.40
2023-03-10T13:37:30.634Z,17.45
2023-03-10T13:40:33.916Z,17.07
2023-03-10T13:43:38.004Z,16.85
2023-03-10T13:46:46.329Z,16.90
2023-03-10T13:49:54.811Z,17.09
2023-03-10T13:52:59.932Z,17.03
2023-03-10T13:56:10.477Z,16.90
2023-03-10T13:59:19.702Z,16.83
2023-03-10T14:02:33.294Z,16.62
2023-03-10T14:05:38.485Z,16.44
2023-03-10T14:08:41.306Z,16.26
2023-03-10T14:11:45.333Z,16.05
2023-03-10T14:14:49.611Z,15.91
2023-03-10T14:18:13.617Z,15.73
2023-03-10T14:21:32.784Z,15.63
2023-03-10T14:24:35.638Z,15.67
2023-03-10T14:27:41.746Z,15.69
2023-03-10T14:30:45.646Z,15.70
2023-03-10T14:33:48.803Z,15.67
2023-03-10T14:36:51.516Z,15.63
2023-03-10T14:39:54.204Z,15.67
2023-03-10T14:42:59.758Z,15.67
2023-03-10T14:46:02.331Z,15.58
2023-03-10T14:49:07.377Z,15.45
2023-03-10T14:52:13.133Z,15.36
2023-03-10T14:55:15.816Z,15.27
2023-03-10T14:58:22.975Z,15.16
2023-03-10T15:01:25.556Z,15.05
2023-03-10T15:04:28.407Z,15.01
2023-03-10T15:07:31.165Z,14.98
2023-03-10T15:10:38.230Z,14.96
2023-03-10T15:13:41.137Z,14.90
2023-03-10T15:16:44.520Z,14.93
2023-03-10T15:19:47.634Z,14.91
2023-03-10T15:22:50.731Z,14.86
2023-03-10T15:25:53.513Z,14.82
2023-03-10T15:28:55.886Z,14.78
2023-03-10T15:32:02.046Z,14.69
2023-03-10T15:35:05.149Z,14.59
2023-03-10T15:38:07.701Z,14.56
2023-03-10T15:41:10.374Z,14.46
2023-03-10T15:44:13.195Z,14.37
2023-03-10T15:47:16.051Z,14.30
2023-03-10T15:50:24.601Z,14.25
2023-03-10T15:53:27.187Z,14.20
2023-03-10T15:56:30.792Z,14.12
2023-03-10T15:59:37.774Z,14.08
2023-03-10T16:02:41.074Z,14.08
2023-03-10T16:05:48.750Z,14.04
2023-03-10T16:08:51.732Z,13.97
2023-03-10T16:11:54.857Z,13.99
2023-03-10T16:14:58.051Z,13.87
2023-03-10T16:18:01.151Z,13.83
2023-03-10T16:21:04.433Z,13.76
2023-03-10T16:24:07.627Z,13.69
2023-03-10T16:27:10.564Z,13.63
2023-03-10T16:30:14.785Z,13.62
2023-03-10T16:33:17.939Z,13.52
2023-03-10T16:36:22.468Z,13.47
2023-03-10T16:39:26.274Z,13.39
2023-03-10T16:42:29.030Z,13.29
2023-03-10T16:45:31.874Z,13.18
2023-03-10T16:48:36.574Z,13.02
2023-03-10T16:51:40.637Z,12.90
2023-03-10T16:54:46.408Z,12.87
2023-03-10T16:57:50.143Z,12.78
2023-03-10T17:00:53.362Z,12.68
2023-03-10T17:03:56.779Z,12.65
2023-03-10T17:06:59.744Z,12.57
2023-03-10T17:10:02.869Z,12.66
2023-03-10T17:13:06.544Z,12.67
2023-03-10T17:16:15.379Z,12.67
2023-03-10T17:19:19.652Z,12.56
2023-03-10T17:22:22.027Z,12.57
2023-03-10T17:25:25.994Z,12.54
2023-03-10T17:28:29.183Z,12.58
2023-03-10T17:31:32.887Z,12.59
2023-03-10T17:34:35.780Z,12.64
2023-03-10T17:37:39.359Z,12.62
2023-03-10T17:40:43.605Z,12.54
2023-03-10T17:43:46.415Z,12.47
2023-03-10T17:46:51.028Z,12.54
2023-03-10T17:49:55.748Z,12.47
2023-03-10T17:52:58.837Z,12.45
2023-03-10T17:56:05.835Z,12.46
2023-03-10T17:59:09.522Z,12.48
2023-03-10T18:02:15.422Z,12.51
2023-03-10T18:05:18.489Z,12.50
2023-03-10T18:08:21.583Z,12.49
2023-03-10T18:11:25.324Z,12.49
2023-03-10T18:14:28.569Z,12.48
2023-03-10T18:17:31.321Z,12.49
2023-03-10T18:20:35.274Z,12.50
2023-03-10T18:23:37.539Z,12.47
2023-03-10T18:26:43.941Z,12.47
2023-03-10T18:29:46.803Z,12.41
2023-03-10T18:32:49.582Z,12.44
2023-03-10T18:35:52.502Z,12.52
2023-03-10T18:38:55.704Z,12.40
2023-03-10T18:41:58.380Z,12.04
2023-03-10T18:45:01.454Z,11.55
2023-03-10T18:48:03.738Z,11.23
2023-03-10T18:51:06.319Z,10.99
2023-03-10T18:54:08.914Z,10.86
2023-03-10T18:57:10.986Z,10.73
2023-03-10T19:00:14.901Z,10.58
2023-03-10T19:03:17.725Z,10.39
2023-03-10T19:06:19.947Z,10.34
2023-03-10T19:09:22.714Z,10.32
2023-03-10T19:12:25.030Z,10.31
2023-03-10T19:15:27.023Z,10.39
2023-03-10T19:18:28.918Z,10.39
2023-03-10T19:21:30.876Z,10.35
2023-03-10T19:24:32.952Z,10.32
2023-03-10T19:27:39.747Z,10.33
2023-03-10T19:30:43.039Z,10.34
2023-03-10T19:33:45.444Z,10.23
2023-03-10T19:36:47.303Z,10.14
2023-03-10T19:39:49.633Z,10.10
2023-03-10T19:42:51.589Z,10.17
2023-03-10T19:46:03.772Z,10.22
2023-03-10T19:49:06.950Z,10.19
2023-03-10T19:52:08.964Z,10.18
2023-03-10T19:55:14.154Z,10.18
2023-03-10T19:58:15.989Z,10.18
2023-03-10T20:01:25.099Z,10.20
2023-03-10T20:04:27.043Z,10.16
2023-03-10T20:07:28.974Z,10.12
2023-03-10T20:10:30.872Z,10.09
2023-03-10T20:13:33.473Z,10.11
2023-03-10T20:16:35.753Z,10.09
2023-03-10T20:19:37.746Z,9.91
2023-03-10T20:22:40.508Z,9.99
2023-03-10T20:25:42.677Z,10.19
2023-03-10T20:28:45.022Z,10.36
2023-03-10T20:31:46.999Z,9.95
2023-03-10T20:34:49.036Z,9.82
2023-03-10T20:37:51.044Z,9.83
2023-03-10T20:40:52.935Z,9.87
2023-03-10T20:43:55.445Z,9.83
2023-03-10T20:46:57.638Z,9.72
2023-03-10T20:50:00.164Z,9.72
2023-03-10T20:53:02.507Z,9.78
2023-03-10T20:56:11.323Z,9.69
2023-03-10T20:59:13.383Z,9.61
2023-03-10T21:02:16.119Z,9.60
2023-03-10T21:05:18.450Z,9.60
2023-03-10T21:08:20.488Z,9.55
2023-03-10T21:11:22.556Z,9.63
2023-03-10T21:14:24.705Z,9.68
2023-03-10T21:17:27.937Z,9.63
2023-03-10T21:20:29.967Z,9.56
2023-03-10T21:23:31.828Z,9.50
2023-03-10T21:26:34.045Z,9.42
2023-03-10T21:29:36.795Z,9.51
2023-03-10T21:32:38.763Z,9.60
2023-03-10T21:35:41.215Z,9.40
2023-03-10T21:38:43.793Z,9.46
2023-03-10T21:41:45.924Z,9.52
2023-03-10T21:44:48.816Z,9.48
2023-03-10T21:47:50.984Z,9.42
2023-03-10T21:50:53.022Z,9.27
2023-03-10T21:53:55.365Z,9.32
2023-03-10T21:56:59.710Z,9.41
2023-03-10T22:00:02.019Z,9.56
2023-03-10T22:03:05.333Z,9.62
2023-03-10T22:06:07.593Z,9.70
2023-03-10T22:09:09.819Z,9.69
2023-03-10T22:12:13.220Z,9.89
2023-03-10T22:15:18.155Z,9.63
2023-03-10T22:18:20.462Z,9.76
2023-03-10T22:21:22.807Z,9.75
2023-03-10T22:24:25.144Z,9.93
2023-03-10T22:27:27.850Z,9.66
2023-03-10T22:30:32.068Z,9.60
2023-03-10T22:33:34.616Z,9.63
2023-03-10T22:36:36.894Z,9.75
2023-03-10T22:39:39.715Z,9.85
2023-03-10T22:42:42.296Z,9.92
2023-03-10T22:45:44.673Z,9.90
2023-03-10T22:48:47.424Z,9.92
2023-03-10T22:51:50.033Z,9.81
2023-03-10T22:54:52.469Z,9.81
2023-03-10T22:57:57.212Z,9.67
2023-03-10T23:01:00.444Z,9.68
2023-03-10T23:04:04.116Z,9.67
2023-03-10T23:07:08.274Z,9.88
2023-03-10T23:10:15.019Z,9.94
2023-03-10T23:13:18.573Z,9.98
2023-03-10T23:16:21.530Z,9.91
2023-03-10T23:19:25.305Z,10.01
2023-03-10T23:22:28.615Z,10.00
2023-03-10T23:25:33.282Z,10.01
2023-03-10T23:28:40.749Z,10.05
2023-03-10T23:31:43.935Z,10.00
2023-03-10T23:34:47.548Z,10.02
2023-03-10T23:37:50.930Z,9.93
2023-03-10T23:40:54.096Z,9.84
2023-03-10T23:43:56.861Z,9.77
2023-03-10T23:46:59.902Z,9.70
2023-03-10T23:50:03.625Z,9.72
2023-03-10T23:53:10.514Z,9.81
2023-03-10T23:56:13.915Z,9.72
2023-03-10T23:59:17.085Z,9.67
